createdAt,value
2022-10-17T00:00:40.858Z,0.00
2022-10-17T00:01:40.927Z,0.00
2022-10-17T00:02:40.846Z,0.00
2022-10-17T00:03:40.824Z,0.00
2022-10-17T00:04:40.821Z,0.00
2022-10-17T00:05:40.806Z,0.00
2022-10-17T00:06:40.823Z,0.00
2022-10-17T00:07:40.777Z,0.00
2022-10-17T00:08:40.773Z,0.00
2022-10-17T00:09:40.772Z,0.00
2022-10-17T00:10:40.747Z,0.00
2022-10-17T00:11:40.758Z,0.00
2022-10-17T00:12:40.727Z,0.00
2022-10-17T00:13:40.714Z,0.00
2022-10-17T00:14:40.713Z,0.00
2022-10-17T00:15:40.713Z,0.00
2022-10-17T00:16:40.680Z,0.00
2022-10-17T00:17:40.681Z,0.00
2022-10-17T00:18:40.661Z,0.00
2022-10-17T00:19:40.639Z,0.00
2022-10-17T00:20:40.646Z,0.00
2022-10-17T00:21:40.620Z,0.00
2022-10-17T00:22:40.628Z,0.00
2022-10-17T00:23:40.601Z,0.00
2022-10-17T00:24:40.595Z,0.00
2022-10-17T00:25:40.584Z,0.00
2022-10-17T00:26:40.576Z,0.00
2022-10-17T00:27:40.574Z,0.00
2022-10-17T00:28:40.583Z,0.00
2022-10-17T00:29:40.542Z,0.00
2022-10-17T00:30:40.532Z,0.00
2022-10-17T00:31:40.626Z,0.00
2022-10-17T00:32:40.513Z,0.00
2022-10-17T00:33:40.533Z,0.00
2022-10-17T00:34:40.497Z,0.00
2022-10-17T00:35:40.469Z,0.00
2022-10-17T00:36:40.472Z,0.00
2022-10-17T00:37:40.466Z,0.00
2022-10-17T00:38:40.450Z,0.00
2022-10-17T00:39:40.445Z,0.00
2022-10-17T00:40:40.462Z,0.00
2022-10-17T00:41:40.404Z,0.00
2022-10-17T00:42:40.394Z,0.00
2022-10-17T00:43:40.384Z,0.00
2022-10-17T00:44:40.383Z,0.00
2022-10-17T00:45:40.358Z,0.00
2022-10-17T00:46:40.352Z,0.00
2022-10-17T00:47:40.352Z,0.00
2022-10-17T00:48:40.323Z,0.00
2022-10-17T00:49:40.320Z,0.00
2022-10-17T00:50:40.323Z,0.00
2022-10-17T00:51:40.296Z,0.00
2022-10-17T00:52:40.288Z,0.00
2022-10-17T00:53:40.285Z,0.00
2022-10-17T00:54:40.265Z,0.00
2022-10-17T00:55:40.251Z,0.00
2022-10-17T00:56:40.252Z,0.00
2022-10-17T00:57:40.227Z,0.00
2022-10-17T00:58:40.225Z,0.00
2022-10-17T00:59:40.210Z,0.00
2022-10-17T01:00:40.205Z,0.00
2022-10-17T01:01:40.237Z,0.00
2022-10-17T01:02:40.182Z,0.00
2022-10-17T01:03:40.189Z,0.00
2022-10-17T01:04:40.161Z,0.00
2022-10-17T01:05:40.169Z,0.00
2022-10-17T01:06:40.127Z,0.00
2022-10-17T01:07:40.125Z,0.00
2022-10-17T01:08:40.107Z,0.00
2022-10-17T01:09:40.108Z,0.00
2022-10-17T01:10:40.101Z,0.00
2022-10-17T01:11:40.086Z,0.00
2022-10-17T01:12:40.088Z,0.00
2022-10-17T01:13:40.058Z,0.00
2022-10-17T01:14:40.051Z,0.00
2022-10-17T01:15:40.043Z,0.00
2022-10-17T01:16:40.029Z,0.00
2022-10-17T01:17:40.033Z,0.00
2022-10-17T01:18:39.999Z,0.00
2022-10-17T01:19:40.031Z,0.00
2022-10-17T01:20:39.988Z,0.00
2022-10-17T01:21:39.998Z,0.00
2022-10-17T01:22:39.997Z,0.00
2022-10-17T01:23:39.967Z,0.00
2022-10-17T01:24:39.978Z,0.00
2022-10-17T01:25:39.938Z,0.00
2022-10-17T01:26:39.926Z,0.00
2022-10-17T01:27:39.950Z,0.00
2022-10-17T01:28:40.081Z,0.00
2022-10-17T01:29:39.903Z,0.00
2022-10-17T01:30:39.884Z,0.00
2022-10-17T01:31:39.879Z,0.00
2022-10-17T01:32:39.858Z,0.00
2022-10-17T01:33:39.849Z,0.00
2022-10-17T01:34:39.865Z,0.00
2022-10-17T01:35:39.844Z,0.00
2022-10-17T01:36:39.832Z,0.00
2022-10-17T01:37:39.850Z,0.00
2022-10-17T01:38:39.798Z,0.00
2022-10-17T01:39:41.626Z,0.00
2022-10-17T01:40:39.797Z,0.00
2022-10-17T01:41:39.760Z,0.00
2022-10-17T01:42:39.746Z,0.00
2022-10-17T01:43:39.734Z,0.00
2022-10-17T01:44:39.741Z,0.00
2022-10-17T01:45:39.712Z,0.00
2022-10-17T01:46:39.715Z,0.00
2022-10-17T01:47:39.696Z,0.00
2022-10-17T01:48:39.680Z,0.00
2022-10-17T01:49:39.673Z,0.00
2022-10-17T01:50:39.673Z,0.00
2022-10-17T01:51:39.681Z,0.00
2022-10-17T01:52:39.891Z,0.00
2022-10-17T01:53:39.626Z,0.00
2022-10-17T01:54:39.613Z,0.00
2022-10-17T01:55:39.608Z,0.00
2022-10-17T01:56:39.600Z,0.00
2022-10-17T01:57:39.593Z,0.00
2022-10-17T01:58:39.588Z,0.00
2022-10-17T01:59:39.574Z,0.00
2022-10-17T02:00:39.565Z,0.00
2022-10-17T02:01:39.598Z,0.00
2022-10-17T02:02:39.546Z,0.00
2022-10-17T02:03:39.570Z,0.00
2022-10-17T02:04:39.517Z,0.00
2022-10-17T02:05:39.505Z,0.00
2022-10-17T02:06:39.486Z,0.00
2022-10-17T02:07:39.510Z,0.00
2022-10-17T02:08:39.475Z,0.00
2022-10-17T02:09:39.481Z,0.00
2022-10-17T02:10:39.445Z,0.00
2022-10-17T02:11:39.440Z,0.00
2022-10-17T02:12:39.457Z,0.00
2022-10-17T02:13:39.420Z,0.00
2022-10-17T02:14:39.434Z,0.00
2022-10-17T02:15:39.429Z,0.00
2022-10-17T02:16:39.378Z,0.00
2022-10-17T02:17:39.398Z,0.00
2022-10-17T02:18:39.361Z,0.00
2022-10-17T02:19:39.360Z,0.00
2022-10-17T02:20:39.370Z,0.00
2022-10-17T02:21:39.354Z,0.00
2022-10-17T02:22:39.326Z,0.00
2022-10-17T02:23:39.323Z,0.00
2022-10-17T02:24:39.293Z,0.00
2022-10-17T02:25:39.281Z,0.00
2022-10-17T02:26:39.269Z,0.00
2022-10-17T02:27:39.271Z,0.00
2022-10-17T02:28:39.294Z,0.00
2022-10-17T02:29:39.239Z,0.00
2022-10-17T02:30:39.227Z,0.00
2022-10-17T02:31:39.224Z,0.00
2022-10-17T02:32:39.232Z,0.00
2022-10-17T02:33:39.193Z,0.00
2022-10-17T02:34:39.194Z,0.00
2022-10-17T02:35:39.169Z,0.00
2022-10-17T02:36:39.175Z,0.00
2022-10-17T02:37:39.159Z,0.00
2022-10-17T02:38:39.140Z,0.00
2022-10-17T02:39:39.149Z,0.00
2022-10-17T02:40:39.110Z,0.00
2022-10-17T02:41:39.132Z,0.00
2022-10-17T02:42:39.093Z,0.00
2022-10-17T02:43:39.090Z,0.00
2022-10-17T02:44:39.072Z,0.00
2022-10-17T02:45:39.073Z,0.00
2022-10-17T02:46:39.048Z,0.00
2022-10-17T02:47:39.070Z,0.00
2022-10-17T02:48:39.027Z,0.00
2022-10-17T02:49:39.025Z,0.00
2022-10-17T02:50:39.019Z,0.00
2022-10-17T02:51:39.011Z,0.00
2022-10-17T02:52:39.017Z,0.00
2022-10-17T02:53:38.978Z,0.00
2022-10-17T02:54:38.983Z,0.00
2022-10-17T02:55:38.971Z,0.00
2022-10-17T02:56:38.947Z,0.00
2022-10-17T02:57:38.937Z,0.00
2022-10-17T02:58:38.939Z,0.00
2022-10-17T02:59:38.934Z,0.00
2022-10-17T03:00:38.929Z,0.00
2022-10-17T03:01:38.964Z,0.00
2022-10-17T03:02:38.879Z,0.00
2022-10-17T03:03:38.875Z,0.00
2022-10-17T03:04:38.857Z,0.00
2022-10-17T03:05:38.853Z,0.00
2022-10-17T03:06:38.847Z,0.00
2022-10-17T03:07:38.837Z,0.00
2022-10-17T03:09:38.839Z,0.00
2022-10-17T03:10:38.797Z,0.00
2022-10-17T03:11:38.852Z,0.00
2022-10-17T03:12:38.781Z,0.00
2022-10-17T03:13:39.907Z,0.00
2022-10-17T03:14:38.746Z,0.00
2022-10-17T03:15:38.743Z,0.00
2022-10-17T03:16:38.732Z,0.00
2022-10-17T03:17:38.802Z,0.00
2022-10-17T03:18:38.709Z,0.00
2022-10-17T03:19:38.716Z,0.00
2022-10-17T03:20:38.684Z,0.00
2022-10-17T03:21:38.689Z,0.00
2022-10-17T03:22:38.669Z,0.00
2022-10-17T03:23:38.659Z,0.00
2022-10-17T03:24:38.644Z,0.00
2022-10-17T03:25:38.629Z,0.00
2022-10-17T03:26:38.684Z,0.00
2022-10-17T03:27:38.617Z,0.00
2022-10-17T03:28:38.675Z,0.00
2022-10-17T03:29:38.588Z,0.00
2022-10-17T03:30:38.584Z,0.00
2022-10-17T03:31:38.622Z,0.00
2022-10-17T03:32:38.568Z,0.00
2022-10-17T03:33:38.538Z,0.00
2022-10-17T03:34:38.532Z,0.00
2022-10-17T03:35:38.584Z,0.00
2022-10-17T03:36:38.513Z,0.00
2022-10-17T03:37:38.520Z,0.00
2022-10-17T03:38:38.491Z,0.00
2022-10-17T03:39:38.515Z,0.00
2022-10-17T03:40:38.475Z,0.00
2022-10-17T03:41:38.994Z,0.00
2022-10-17T03:42:38.452Z,0.00
2022-10-17T03:43:38.450Z,0.00
2022-10-17T03:44:38.448Z,0.00
2022-10-17T03:45:38.421Z,0.00
2022-10-17T03:46:38.402Z,0.00
2022-10-17T03:47:38.422Z,0.00
2022-10-17T03:48:38.391Z,0.00
2022-10-17T03:49:38.375Z,0.00
2022-10-17T03:50:38.396Z,0.00
2022-10-17T03:51:38.352Z,0.00
2022-10-17T03:52:38.340Z,0.00
2022-10-17T03:53:38.325Z,0.00
2022-10-17T03:54:38.311Z,0.00
2022-10-17T03:55:38.306Z,0.00
2022-10-17T03:56:38.317Z,0.00
2022-10-17T03:57:41.054Z,0.00
2022-10-17T03:58:39.283Z,0.00
2022-10-17T03:59:38.275Z,0.00
2022-10-17T04:00:38.251Z,0.00
2022-10-17T04:01:38.311Z,0.00
2022-10-17T04:02:38.221Z,0.00
2022-10-17T04:03:38.231Z,0.00
2022-10-17T04:04:38.205Z,0.00
2022-10-17T04:05:38.193Z,0.00
2022-10-17T04:06:38.180Z,0.00
2022-10-17T04:07:38.206Z,0.00
2022-10-17T04:08:38.185Z,0.00
2022-10-17T04:09:38.162Z,0.00
2022-10-17T04:10:38.148Z,0.00
2022-10-17T04:11:38.126Z,0.00
2022-10-17T04:12:38.127Z,0.00
2022-10-17T04:13:38.117Z,0.00
2022-10-17T04:14:38.121Z,0.00
2022-10-17T04:15:38.106Z,0.00
2022-10-17T04:16:38.079Z,0.00
2022-10-17T04:17:38.216Z,0.00
2022-10-17T04:18:38.057Z,0.00
2022-10-17T04:19:38.067Z,0.00
2022-10-17T04:20:38.053Z,0.00
2022-10-17T04:21:38.063Z,0.00
2022-10-17T04:22:38.045Z,0.00
2022-10-17T04:23:38.074Z,0.00
2022-10-17T04:24:38.029Z,0.00
2022-10-17T04:25:37.979Z,0.00
2022-10-17T04:26:37.963Z,0.00
2022-10-17T04:27:37.963Z,0.00
2022-10-17T04:29:37.950Z,0.00
2022-10-17T04:30:41.120Z,0.00
2022-10-17T04:31:38.935Z,0.00
2022-10-17T04:32:37.903Z,0.00
2022-10-17T04:33:37.897Z,0.00
2022-10-17T04:34:37.897Z,0.00
2022-10-17T04:35:37.865Z,0.00
2022-10-17T04:36:37.876Z,0.00
2022-10-17T04:37:37.852Z,0.00
2022-10-17T04:38:37.842Z,0.00
2022-10-17T04:39:37.830Z,0.00
2022-10-17T04:40:37.814Z,0.00
2022-10-17T04:41:37.813Z,0.00
2022-10-17T04:42:37.815Z,0.00
2022-10-17T04:43:37.792Z,0.00
2022-10-17T04:44:37.773Z,0.00
2022-10-17T04:45:37.773Z,0.00
2022-10-17T04:46:37.752Z,0.00
2022-10-17T04:47:37.784Z,0.00
2022-10-17T04:48:37.737Z,0.00
2022-10-17T04:49:37.760Z,0.00
2022-10-17T04:50:37.727Z,0.00
2022-10-17T04:51:37.698Z,0.00
2022-10-17T04:52:37.691Z,0.00
2022-10-17T04:53:37.673Z,0.00
2022-10-17T04:54:37.667Z,0.00
2022-10-17T04:55:37.657Z,0.00
2022-10-17T04:56:37.665Z,0.00
2022-10-17T04:57:37.643Z,0.00
2022-10-17T04:58:37.626Z,0.00
2022-10-17T04:59:37.612Z,0.00
2022-10-17T05:00:37.646Z,0.00
2022-10-17T05:01:37.591Z,0.00
2022-10-17T05:02:38.041Z,0.00
2022-10-17T05:03:37.603Z,0.00
2022-10-17T05:04:37.552Z,0.00
2022-10-17T05:05:37.551Z,0.00
2022-10-17T05:06:37.561Z,0.00
2022-10-17T05:07:37.542Z,4.00
2022-10-17T05:08:37.522Z,4.00
2022-10-17T05:09:37.500Z,4.00
2022-10-17T05:10:37.489Z,0.00
2022-10-17T05:11:37.487Z,4.00
2022-10-17T05:12:37.481Z,4.00
2022-10-17T05:13:37.462Z,4.00
2022-10-17T05:14:37.463Z,8.00
2022-10-17T05:15:37.442Z,8.00
2022-10-17T05:16:46.979Z,8.00
2022-10-17T05:17:37.418Z,12.00
2022-10-17T05:18:37.401Z,12.00
2022-10-17T05:19:37.424Z,12.00
2022-10-17T05:20:37.379Z,16.00
2022-10-17T05:21:37.519Z,16.00
2022-10-17T05:22:39.776Z,20.00
2022-10-17T05:23:37.350Z,24.00
2022-10-17T05:24:37.363Z,24.00
2022-10-17T05:25:37.319Z,28.00
2022-10-17T05:26:37.306Z,32.00
2022-10-17T05:27:37.307Z,40.00
2022-10-17T05:28:37.374Z,44.00
2022-10-17T05:29:37.281Z,48.00
2022-10-17T05:30:37.729Z,56.00
2022-10-17T05:31:37.264Z,64.00
2022-10-17T05:32:37.254Z,68.00
2022-10-17T05:33:37.250Z,72.00
2022-10-17T05:34:37.228Z,80.00
2022-10-17T05:35:37.253Z,88.00
2022-10-17T05:36:37.229Z,96.00
2022-10-17T05:37:37.186Z,104.00
2022-10-17T05:38:37.184Z,112.00
2022-10-17T05:39:37.172Z,128.00
2022-10-17T05:40:37.171Z,144.00
2022-10-17T05:41:37.166Z,156.00
2022-10-17T05:42:37.193Z,172.00
2022-10-17T05:43:37.124Z,188.00
2022-10-17T05:44:37.118Z,200.00
2022-10-17T05:45:37.113Z,216.00
2022-10-17T05:46:37.093Z,232.00
2022-10-17T05:47:37.087Z,248.00
2022-10-17T05:48:37.076Z,268.00
2022-10-17T05:49:46.384Z,288.00
2022-10-17T05:50:38.070Z,308.00
2022-10-17T05:51:37.079Z,328.00
2022-10-17T05:52:37.036Z,356.00
2022-10-17T05:53:37.012Z,384.00
2022-10-17T05:54:37.010Z,412.00
2022-10-17T05:55:36.993Z,444.00
2022-10-17T05:56:37.006Z,468.00
2022-10-17T05:57:36.980Z,488.00
2022-10-17T05:58:49.858Z,508.00
2022-10-17T05:59:37.947Z,532.00
2022-10-17T06:00:37.015Z,560.00
2022-10-17T06:01:36.997Z,584.00
2022-10-17T06:02:36.926Z,600.00
2022-10-17T06:03:36.912Z,616.00
2022-10-17T06:04:36.895Z,636.00
2022-10-17T06:05:36.892Z,664.00
2022-10-17T06:06:36.901Z,688.00
2022-10-17T06:07:36.898Z,708.00
2022-10-17T06:08:36.870Z,724.00
2022-10-17T06:09:36.885Z,744.00
2022-10-17T06:10:36.871Z,772.00
2022-10-17T06:11:36.822Z,804.00
2022-10-17T06:12:36.809Z,828.00
2022-10-17T06:13:36.805Z,848.00
2022-10-17T06:14:36.795Z,860.00
2022-10-17T06:15:36.774Z,880.00
2022-10-17T06:16:40.139Z,896.00
2022-10-17T06:17:36.847Z,908.00
2022-10-17T06:18:36.776Z,912.00
2022-10-17T06:19:36.734Z,924.00
2022-10-17T06:20:36.723Z,916.00
2022-10-17T06:21:36.710Z,916.00
2022-10-17T06:22:36.827Z,916.00
2022-10-17T06:23:36.710Z,916.00
2022-10-17T06:24:36.696Z,940.00
2022-10-17T06:25:36.674Z,960.00
2022-10-17T06:26:36.671Z,968.00
2022-10-17T06:27:36.655Z,996.00
2022-10-17T06:28:36.710Z,1032.00
2022-10-17T06:29:36.654Z,1044.00
2022-10-17T06:30:36.628Z,1060.00
2022-10-17T06:31:36.614Z,1104.00
2022-10-17T06:32:36.591Z,1168.00
2022-10-17T06:33:36.834Z,1232.00
2022-10-17T06:34:36.668Z,1296.00
2022-10-17T06:35:36.584Z,1388.00
2022-10-17T06:36:36.557Z,1500.00
2022-10-17T06:37:37.132Z,1580.00
2022-10-17T06:38:36.530Z,1636.00
2022-10-17T06:39:36.593Z,1680.00
2022-10-17T06:40:36.518Z,1688.00
2022-10-17T06:41:36.514Z,1696.00
2022-10-17T06:42:36.488Z,1684.00
2022-10-17T06:43:36.482Z,1660.00
2022-10-17T06:44:36.477Z,1632.00
2022-10-17T06:45:36.454Z,1580.00
2022-10-17T06:46:36.473Z,1524.00
2022-10-17T06:47:36.431Z,1496.00
2022-10-17T06:48:36.430Z,1488.00
2022-10-17T06:49:36.408Z,1436.00
2022-10-17T06:50:36.411Z,1380.00
2022-10-17T06:51:36.389Z,1352.00
2022-10-17T06:52:37.045Z,1360.00
2022-10-17T06:53:36.487Z,1380.00
2022-10-17T06:54:36.361Z,1376.00
2022-10-17T06:55:36.363Z,1396.00
2022-10-17T06:56:36.335Z,1428.00
2022-10-17T06:57:36.378Z,1484.00
2022-10-17T06:58:36.326Z,1556.00
2022-10-17T06:59:36.356Z,1624.00
2022-10-17T07:00:36.488Z,1736.00
2022-10-17T07:01:37.424Z,1832.00
2022-10-17T07:02:36.282Z,1888.00
2022-10-17T07:03:36.286Z,1920.00
2022-10-17T07:04:36.570Z,1928.00
2022-10-17T07:05:36.247Z,1920.00
2022-10-17T07:06:36.263Z,1984.00
2022-10-17T07:07:40.012Z,2064.00
2022-10-17T07:08:37.215Z,2088.00
2022-10-17T07:09:36.219Z,2176.00
2022-10-17T07:10:36.191Z,2252.00
2022-10-17T07:11:36.208Z,2388.00
2022-10-17T07:12:36.165Z,2400.00
2022-10-17T07:13:39.115Z,2376.00
2022-10-17T07:14:36.158Z,2488.00
2022-10-17T07:15:36.134Z,2516.00
2022-10-17T07:16:36.136Z,2512.00
2022-10-17T07:17:36.123Z,2676.00
2022-10-17T07:18:36.105Z,2520.00
2022-10-17T07:19:36.089Z,2500.00
2022-10-17T07:20:36.097Z,2460.00
2022-10-17T07:21:38.992Z,2456.00
2022-10-17T07:22:36.058Z,2488.00
2022-10-17T07:23:36.068Z,2516.00
2022-10-17T07:24:36.044Z,2488.00
2022-10-17T07:25:39.279Z,2336.00
2022-10-17T07:26:36.018Z,2372.00
2022-10-17T07:27:36.027Z,2376.00
2022-10-17T07:28:36.047Z,2368.00
2022-10-17T07:29:36.001Z,2368.00
2022-10-17T07:30:35.973Z,2352.00
2022-10-17T07:31:35.984Z,2220.00
2022-10-17T07:32:35.962Z,2160.00
2022-10-17T07:33:36.003Z,2244.00
2022-10-17T07:34:35.937Z,2332.00
2022-10-17T07:35:35.923Z,2388.00
2022-10-17T07:36:35.946Z,2428.00
2022-10-17T07:37:35.896Z,2448.00
2022-10-17T07:38:35.892Z,2424.00
2022-10-17T07:39:35.895Z,2484.00
2022-10-17T07:40:35.873Z,2532.00
2022-10-17T07:41:35.852Z,2540.00
2022-10-17T07:42:35.913Z,2672.00
2022-10-17T07:43:35.944Z,2756.00
2022-10-17T07:44:35.869Z,2704.00
2022-10-17T07:45:35.825Z,2772.00
2022-10-17T07:46:36.528Z,2648.00
2022-10-17T07:47:35.804Z,2864.00
2022-10-17T07:48:35.812Z,2992.00
2022-10-17T07:49:35.774Z,3020.00
2022-10-17T07:50:35.763Z,3116.00
2022-10-17T07:51:35.845Z,3160.00
2022-10-17T07:52:35.769Z,3212.00
2022-10-17T07:53:35.734Z,3316.00
2022-10-17T07:54:35.728Z,3364.00
2022-10-17T07:55:35.707Z,3432.00
2022-10-17T07:56:35.696Z,3348.00
2022-10-17T07:57:35.676Z,3408.00
2022-10-17T07:58:35.666Z,3300.00
2022-10-17T07:59:35.791Z,3004.00
2022-10-17T08:00:35.691Z,3052.00
2022-10-17T08:01:35.667Z,3304.00
2022-10-17T08:02:35.634Z,3636.00
2022-10-17T08:03:35.608Z,3808.00
2022-10-17T08:04:35.617Z,3912.00
2022-10-17T08:05:35.589Z,4024.00
2022-10-17T08:06:35.590Z,4080.00
2022-10-17T08:07:35.576Z,4040.00
2022-10-17T08:08:35.568Z,4252.00
2022-10-17T08:09:35.559Z,4552.00
2022-10-17T08:10:35.540Z,4708.00
2022-10-17T08:11:35.521Z,4332.00
2022-10-17T08:12:35.524Z,4720.00
2022-10-17T08:13:35.509Z,5096.00
2022-10-17T08:14:35.511Z,5076.00
2022-10-17T08:15:35.503Z,4676.00
2022-10-17T08:16:35.471Z,4712.00
2022-10-17T08:17:35.467Z,4828.00
2022-10-17T08:18:35.454Z,5680.00
2022-10-17T08:19:35.447Z,5892.00
2022-10-17T08:20:35.427Z,6076.00
2022-10-17T08:21:35.414Z,6528.00
2022-10-17T08:22:35.417Z,6976.00
2022-10-17T08:23:35.396Z,6812.00
2022-10-17T08:24:35.421Z,7180.00
2022-10-17T08:25:35.381Z,7256.00
2022-10-17T08:26:39.191Z,8360.00
2022-10-17T08:27:35.354Z,9068.00
2022-10-17T08:28:35.497Z,7908.00
2022-10-17T08:29:35.338Z,13144.00
2022-10-17T08:30:35.347Z,12644.00
2022-10-17T08:31:35.325Z,13260.00
2022-10-17T08:32:35.307Z,13540.00
2022-10-17T08:33:35.312Z,15040.00
2022-10-17T08:34:35.287Z,24544.00
2022-10-17T08:35:35.268Z,29536.00
2022-10-17T08:36:35.268Z,33600.00
2022-10-17T08:37:35.249Z,33888.00
2022-10-17T08:38:35.953Z,32512.00
2022-10-17T08:39:35.230Z,32608.00
2022-10-17T08:40:35.228Z,32224.00
2022-10-17T08:41:35.222Z,32000.00
2022-10-17T08:42:35.197Z,26496.00
2022-10-17T08:43:35.639Z,23008.00
2022-10-17T08:44:35.188Z,16320.00
2022-10-17T08:45:35.165Z,16672.00
2022-10-17T08:46:35.156Z,11380.00
2022-10-17T08:47:35.168Z,11888.00
2022-10-17T08:48:35.139Z,14268.00
2022-10-17T08:49:35.122Z,11744.00
2022-10-17T08:50:35.114Z,14512.00
2022-10-17T08:51:35.102Z,11076.00
2022-10-17T08:52:35.101Z,11692.00
2022-10-17T08:53:35.077Z,18752.00
2022-10-17T08:54:35.064Z,19552.00
2022-10-17T08:55:35.068Z,16992.00
2022-10-17T08:56:48.065Z,7376.00
2022-10-17T08:57:37.029Z,8728.00
2022-10-17T08:58:35.027Z,9084.00
2022-10-17T08:59:35.009Z,7576.00
2022-10-17T09:00:35.005Z,6552.00
2022-10-17T09:01:34.998Z,6536.00
2022-10-17T09:02:35.050Z,6896.00
2022-10-17T09:03:35.025Z,7076.00
2022-10-17T09:04:34.971Z,7348.00
2022-10-17T09:05:34.968Z,8096.00
2022-10-17T09:06:34.974Z,14268.00
2022-10-17T09:07:34.938Z,15008.00
2022-10-17T09:08:34.939Z,19776.00
2022-10-17T09:09:34.924Z,13472.00
2022-10-17T09:10:34.916Z,7844.00
2022-10-17T09:11:34.881Z,6396.00
2022-10-17T09:12:34.872Z,5620.00
2022-10-17T09:14:34.894Z,4788.00
2022-10-17T09:15:34.841Z,4700.00
2022-10-17T09:16:34.909Z,4700.00
2022-10-17T09:17:34.848Z,4760.00
2022-10-17T09:18:34.824Z,4712.00
2022-10-17T09:19:34.836Z,4608.00
2022-10-17T09:20:34.816Z,4648.00
2022-10-17T09:21:34.811Z,5080.00
2022-10-17T09:22:34.813Z,5056.00
2022-10-17T09:23:36.163Z,4976.00
2022-10-17T09:24:34.757Z,4988.00
2022-10-17T09:25:34.753Z,5632.00
2022-10-17T09:26:34.751Z,7208.00
2022-10-17T09:27:34.720Z,8476.00
2022-10-17T09:28:34.815Z,5528.00
2022-10-17T09:29:38.988Z,5700.00
2022-10-17T09:30:46.954Z,6364.00
2022-10-17T09:31:35.665Z,6880.00
2022-10-17T09:32:34.690Z,8364.00
2022-10-17T09:33:49.551Z,18976.00
2022-10-17T09:34:35.635Z,26368.00
2022-10-17T09:35:34.651Z,13984.00
2022-10-17T09:36:34.615Z,29824.00
2022-10-17T09:37:34.604Z,21536.00
2022-10-17T09:38:34.627Z,14580.00
2022-10-17T09:39:34.589Z,16352.00
2022-10-17T09:40:34.586Z,17760.00
2022-10-17T09:41:50.000Z,11440.00
2022-10-17T09:42:35.556Z,10712.00
2022-10-17T09:43:34.549Z,8700.00
2022-10-17T09:44:34.566Z,11752.00
2022-10-17T09:45:34.528Z,10324.00
2022-10-17T09:46:34.535Z,10144.00
2022-10-17T09:47:34.505Z,7540.00
2022-10-17T09:48:34.493Z,7228.00
2022-10-17T09:49:34.485Z,6492.00
2022-10-17T09:50:34.480Z,6704.00
2022-10-17T09:51:34.477Z,5516.00
2022-10-17T09:52:34.457Z,5324.00
2022-10-17T09:53:34.438Z,5496.00
2022-10-17T09:54:34.443Z,5076.00
2022-10-17T09:55:34.437Z,5748.00
2022-10-17T09:56:34.403Z,6924.00
2022-10-17T09:57:34.387Z,9276.00
2022-10-17T09:58:34.380Z,5036.00
2022-10-17T09:59:34.376Z,5148.00
2022-10-17T10:00:34.443Z,4816.00
2022-10-17T10:01:34.350Z,4916.00
2022-10-17T10:02:34.357Z,4768.00
2022-10-17T10:03:34.321Z,4836.00
2022-10-17T10:04:41.595Z,4920.00
2022-10-17T10:05:35.319Z,4836.00
2022-10-17T10:06:34.305Z,4716.00
2022-10-17T10:07:34.320Z,4676.00
2022-10-17T10:08:34.296Z,4788.00
2022-10-17T10:09:36.808Z,5104.00
2022-10-17T10:10:34.257Z,4884.00
2022-10-17T10:11:34.258Z,4832.00
2022-10-17T10:12:34.230Z,5168.00
2022-10-17T10:13:34.242Z,5160.00
2022-10-17T10:14:35.120Z,5304.00
2022-10-17T10:15:34.212Z,6328.00
2022-10-17T10:16:34.193Z,5524.00
2022-10-17T10:17:34.185Z,5948.00
2022-10-17T10:18:34.186Z,6456.00
2022-10-17T10:19:34.162Z,6376.00
2022-10-17T10:20:34.153Z,6420.00
2022-10-17T10:21:37.169Z,5136.00
2022-10-17T10:22:34.130Z,5076.00
2022-10-17T10:23:34.159Z,6480.00
2022-10-17T10:24:34.114Z,7112.00
2022-10-17T10:25:34.102Z,5712.00
2022-10-17T10:26:34.084Z,5652.00
2022-10-17T10:27:34.085Z,6260.00
2022-10-17T10:28:34.148Z,6692.00
2022-10-17T10:29:34.068Z,6908.00
2022-10-17T10:30:36.212Z,6776.00
2022-10-17T10:31:35.046Z,6864.00
2022-10-17T10:32:34.037Z,6268.00
2022-10-17T10:33:34.016Z,6120.00
2022-10-17T10:34:34.018Z,5976.00
2022-10-17T10:35:33.991Z,5632.00
2022-10-17T10:36:34.047Z,5420.00
2022-10-17T10:37:34.078Z,5528.00
2022-10-17T10:38:33.978Z,5336.00
2022-10-17T10:39:34.025Z,5168.00
2022-10-17T10:40:33.940Z,4952.00
2022-10-17T10:41:33.923Z,5068.00
2022-10-17T10:42:33.910Z,4932.00
2022-10-17T10:43:33.929Z,4548.00
2022-10-17T10:44:33.895Z,4524.00
2022-10-17T10:45:49.366Z,4460.00
2022-10-17T10:46:34.873Z,4368.00
2022-10-17T10:47:33.865Z,4316.00
2022-10-17T10:48:33.850Z,4324.00
2022-10-17T10:49:33.844Z,4380.00
2022-10-17T10:50:33.861Z,4608.00
2022-10-17T10:51:33.834Z,4540.00
2022-10-17T10:52:33.844Z,4012.00
2022-10-17T10:53:35.330Z,3908.00
2022-10-17T10:54:33.819Z,3992.00
2022-10-17T10:55:33.803Z,4560.00
2022-10-17T10:56:33.765Z,4572.00
2022-10-17T10:57:33.759Z,4508.00
2022-10-17T10:58:33.764Z,4552.00
2022-10-17T10:59:33.755Z,4388.00
2022-10-17T11:00:33.803Z,4268.00
2022-10-17T11:01:33.729Z,4012.00
2022-10-17T11:02:33.706Z,3972.00
2022-10-17T11:03:33.746Z,3840.00
2022-10-17T11:04:33.694Z,3868.00
2022-10-17T11:05:33.684Z,3796.00
2022-10-17T11:06:33.709Z,3904.00
2022-10-17T11:07:33.666Z,3856.00
2022-10-17T11:08:33.637Z,3996.00
2022-10-17T11:09:33.973Z,3956.00
2022-10-17T11:10:33.622Z,4400.00
2022-10-17T11:11:33.624Z,4460.00
2022-10-17T11:12:33.644Z,4444.00
2022-10-17T11:13:33.583Z,4440.00
2022-10-17T11:14:33.568Z,4780.00
2022-10-17T11:15:33.565Z,4796.00
2022-10-17T11:16:33.558Z,4656.00
2022-10-17T11:17:33.548Z,4552.00
2022-10-17T11:18:33.532Z,4420.00
2022-10-17T11:19:33.517Z,4360.00
2022-10-17T11:20:33.518Z,4372.00
2022-10-17T11:21:33.554Z,4464.00
2022-10-17T11:22:33.655Z,4524.00
2022-10-17T11:23:33.475Z,4520.00
2022-10-17T11:24:33.475Z,4540.00
2022-10-17T11:25:33.478Z,4516.00
2022-10-17T11:26:33.452Z,4428.00
2022-10-17T11:27:33.471Z,4476.00
2022-10-17T11:28:33.494Z,4352.00
2022-10-17T11:29:33.417Z,4224.00
2022-10-17T11:30:33.421Z,4248.00
2022-10-17T11:31:33.423Z,4228.00
2022-10-17T11:32:33.396Z,4004.00
2022-10-17T11:33:33.416Z,3996.00
2022-10-17T11:34:33.388Z,3804.00
2022-10-17T11:35:33.350Z,3736.00
2022-10-17T11:36:33.353Z,3832.00
2022-10-17T11:37:33.338Z,3752.00
2022-10-17T11:38:33.341Z,3732.00
2022-10-17T11:39:33.396Z,3864.00
2022-10-17T11:40:33.309Z,3872.00
2022-10-17T11:41:33.286Z,3884.00
2022-10-17T11:42:33.291Z,3904.00
2022-10-17T11:43:33.283Z,3852.00
2022-10-17T11:44:33.271Z,3820.00
2022-10-17T11:45:33.256Z,3956.00
2022-10-17T11:46:33.259Z,4016.00
2022-10-17T11:47:33.250Z,4084.00
2022-10-17T11:48:33.221Z,4092.00
2022-10-17T11:49:35.530Z,4024.00
2022-10-17T11:53:34.193Z,3696.00
2022-10-17T11:54:33.151Z,3572.00
2022-10-17T11:55:33.168Z,3632.00
2022-10-17T11:56:33.139Z,3780.00
2022-10-17T11:57:33.123Z,4004.00
2022-10-17T11:58:33.117Z,4036.00
2022-10-17T11:59:33.122Z,4036.00
2022-10-17T12:00:34.831Z,4268.00
2022-10-17T12:01:33.084Z,4448.00
2022-10-17T12:02:33.068Z,4780.00
2022-10-17T12:03:33.071Z,4800.00
2022-10-17T12:04:33.077Z,4712.00
2022-10-17T12:05:33.041Z,4752.00
2022-10-17T12:06:33.029Z,4756.00
2022-10-17T12:07:33.466Z,4484.00
2022-10-17T12:08:33.027Z,3728.00
2022-10-17T12:09:33.001Z,3056.00
2022-10-17T12:10:32.981Z,3604.00
2022-10-17T12:11:32.970Z,3784.00
2022-10-17T12:12:33.299Z,3952.00
2022-10-17T12:13:32.961Z,4160.00
2022-10-17T12:14:32.955Z,4148.00
2022-10-17T12:15:32.948Z,4108.00
2022-10-17T12:16:33.043Z,4016.00
2022-10-17T12:17:33.236Z,4052.00
2022-10-17T12:18:32.895Z,3964.00
2022-10-17T12:19:32.906Z,4056.00
2022-10-17T12:20:32.906Z,4072.00
2022-10-17T12:21:32.864Z,3984.00
2022-10-17T12:22:32.867Z,3852.00
2022-10-17T12:23:32.841Z,3696.00
2022-10-17T12:24:32.839Z,3836.00
2022-10-17T12:25:32.901Z,3736.00
2022-10-17T12:26:32.808Z,3700.00
2022-10-17T12:27:32.807Z,3688.00
2022-10-17T12:28:32.847Z,3540.00
2022-10-17T12:29:32.784Z,3500.00
2022-10-17T12:30:32.771Z,3568.00
2022-10-17T12:31:34.306Z,3548.00
2022-10-17T12:32:46.993Z,3576.00
2022-10-17T12:33:33.738Z,3588.00
2022-10-17T12:34:32.769Z,3600.00
2022-10-17T12:35:32.726Z,3524.00
2022-10-17T12:36:32.704Z,3588.00
2022-10-17T12:37:32.693Z,3524.00
2022-10-17T12:38:32.698Z,3552.00
2022-10-17T12:39:32.677Z,3524.00
2022-10-17T12:40:32.660Z,3484.00
2022-10-17T12:41:32.642Z,3492.00